sensor_id;sensor_type;location;lat;lon;timestamp;P1;durP1;ratioP1;P2;durP2;ratioP2
15699;SDS011;7950;42.744;23.174;2023-07-09T00:02:23;4.87;;;3.53;;
15699;SDS011;7950;42.744;23.174;2023-07-09T00:04:54;4.47;;;3.43;;
15699;SDS011;7950;42.744;23.174;2023-07-09T00:07:23;5.60;;;3.40;;
15699;SDS011;7950;42.744;23.174;2023-07-09T00:09:56;4.80;;;3.73;;
15699;SDS011;7950;42.744;23.174;2023-07-09T00:12:26;4.60;;;3.70;;
15699;SDS011;7950;42.744;23.174;2023-07-09T00:14:56;3.90;;;3.50;;
15699;SDS011;7950;42.744;23.174;2023-07-09T00:17:26;5.93;;;3.63;;
15699;SDS011;7950;42.744;23.174;2023-07-09T00:19:58;5.43;;;3.70;;
15699;SDS011;7950;42.744;23.174;2023-07-09T00:22:27;7.43;;;4.43;;
15699;SDS011;7950;42.744;23.174;2023-07-09T00:24:55;4.00;;;3.67;;
15699;SDS011;7950;42.744;23.174;2023-07-09T00:27:25;6.87;;;4.13;;
15699;SDS011;7950;42.744;23.174;2023-07-09T00:29:59;7.13;;;3.90;;
15699;SDS011;7950;42.744;23.174;2023-07-09T00:32:30;5.23;;;3.40;;
15699;SDS011;7950;42.744;23.174;2023-07-09T00:34:59;5.50;;;3.97;;
15699;SDS011;7950;42.744;23.174;2023-07-09T00:37:31;4.20;;;3.80;;
15699;SDS011;7950;42.744;23.174;2023-07-09T00:40:00;4.47;;;3.87;;
15699;SDS011;7950;42.744;23.174;2023-07-09T00:42:29;4.80;;;3.73;;
15699;SDS011;7950;42.744;23.174;2023-07-09T00:44:59;3.80;;;3.50;;
15699;SDS011;7950;42.744;23.174;2023-07-09T00:47:29;4.00;;;3.57;;
15699;SDS011;7950;42.744;23.174;2023-07-09T00:50:20;5.27;;;3.90;;
15699;SDS011;7950;42.744;23.174;2023-07-09T00:53:04;11.67;;;4.00;;
15699;SDS011;7950;42.744;23.174;2023-07-09T00:55:46;4.67;;;3.90;;
15699;SDS011;7950;42.744;23.174;2023-07-09T00:58:22;4.90;;;3.90;;
15699;SDS011;7950;42.744;23.174;2023-07-09T01:00:56;4.13;;;3.73;;
15699;SDS011;7950;42.744;23.174;2023-07-09T01:03:33;8.13;;;4.87;;
15699;SDS011;7950;42.744;23.174;2023-07-09T01:06:07;4.37;;;3.70;;
15699;SDS011;7950;42.744;23.174;2023-07-09T01:08:39;5.43;;;3.60;;
15699;SDS011;7950;42.744;23.174;2023-07-09T01:11:14;6.20;;;4.10;;
15699;SDS011;7950;42.744;23.174;2023-07-09T01:13:47;5.87;;;4.10;;
15699;SDS011;7950;42.744;23.174;2023-07-09T01:16:20;4.63;;;4.17;;
15699;SDS011;7950;42.744;23.174;2023-07-09T01:18:51;7.97;;;3.90;;
15699;SDS011;7950;42.744;23.174;2023-07-09T01:21:22;4.40;;;3.80;;
15699;SDS011;7950;42.744;23.174;2023-07-09T01:23:51;4.43;;;4.00;;
15699;SDS011;7950;42.744;23.174;2023-07-09T01:26:21;4.50;;;4.10;;
15699;SDS011;7950;42.744;23.174;2023-07-09T01:28:54;5.23;;;3.90;;
15699;SDS011;7950;42.744;23.174;2023-07-09T01:31:23;5.27;;;4.10;;
15699;SDS011;7950;42.744;23.174;2023-07-09T01:33:52;4.57;;;4.17;;
15699;SDS011;7950;42.744;23.174;2023-07-09T01:36:21;6.93;;;3.80;;
15699;SDS011;7950;42.744;23.174;2023-07-09T01:38:51;5.97;;;4.10;;
15699;SDS011;7950;42.744;23.174;2023-07-09T01:41:21;4.47;;;3.53;;
15699;SDS011;7950;42.744;23.174;2023-07-09T01:43:49;4.57;;;4.00;;
15699;SDS011;7950;42.744;23.174;2023-07-09T01:46:19;4.90;;;4.20;;
15699;SDS011;7950;42.744;23.174;2023-07-09T01:48:48;5.57;;;4.23;;
15699;SDS011;7950;42.744;23.174;2023-07-09T01:51:19;5.10;;;3.80;;
15699;SDS011;7950;42.744;23.174;2023-07-09T01:53:50;4.93;;;3.87;;
15699;SDS011;7950;42.744;23.174;2023-07-09T01:56:20;5.30;;;4.20;;
15699;SDS011;7950;42.744;23.174;2023-07-09T01:58:50;4.50;;;4.10;;
15699;SDS011;7950;42.744;23.174;2023-07-09T02:01:19;4.40;;;4.00;;
15699;SDS011;7950;42.744;23.174;2023-07-09T02:03:48;7.07;;;3.97;;
15699;SDS011;7950;42.744;23.174;2023-07-09T02:06:16;4.83;;;4.37;;
15699;SDS011;7950;42.744;23.174;2023-07-09T02:08:46;5.63;;;3.97;;
15699;SDS011;7950;42.744;23.174;2023-07-09T02:11:16;4.17;;;3.73;;
15699;SDS011;7950;42.744;23.174;2023-07-09T02:13:44;5.03;;;3.93;;
15699;SDS011;7950;42.744;23.174;2023-07-09T02:16:13;4.70;;;3.63;;
15699;SDS011;7950;42.744;23.174;2023-07-09T02:18:41;5.03;;;3.80;;
15699;SDS011;7950;42.744;23.174;2023-07-09T02:21:10;6.17;;;4.20;;
15699;SDS011;7950;42.744;23.174;2023-07-09T02:23:38;4.40;;;4.00;;
15699;SDS011;7950;42.744;23.174;2023-07-09T02:26:07;5.50;;;4.33;;
15699;SDS011;7950;42.744;23.174;2023-07-09T02:28:37;7.20;;;4.17;;
15699;SDS011;7950;42.744;23.174;2023-07-09T02:31:06;6.20;;;4.20;;
15699;SDS011;7950;42.744;23.174;2023-07-09T02:33:34;5.47;;;3.83;;
15699;SDS011;7950;42.744;23.174;2023-07-09T02:36:03;6.50;;;3.90;;
15699;SDS011;7950;42.744;23.174;2023-07-09T02:38:32;8.13;;;3.80;;
15699;SDS011;7950;42.744;23.174;2023-07-09T02:41:00;6.53;;;4.30;;
15699;SDS011;7950;42.744;23.174;2023-07-09T02:43:29;4.53;;;3.80;;
15699;SDS011;7950;42.744;23.174;2023-07-09T02:45:59;5.13;;;3.83;;
15699;SDS011;7950;42.744;23.174;2023-07-09T02:48:28;6.77;;;4.10;;
15699;SDS011;7950;42.744;23.174;2023-07-09T02:50:57;5.17;;;4.40;;
15699;SDS011;7950;42.744;23.174;2023-07-09T02:53:25;6.53;;;4.20;;
15699;SDS011;7950;42.744;23.174;2023-07-09T02:55:55;6.93;;;4.27;;
15699;SDS011;7950;42.744;23.174;2023-07-09T02:58:24;5.07;;;3.97;;
15699;SDS011;7950;42.744;23.174;2023-07-09T03:00:52;5.50;;;4.13;;
15699;SDS011;7950;42.744;23.174;2023-07-09T03:03:22;4.73;;;3.80;;
15699;SDS011;7950;42.744;23.174;2023-07-09T03:05:51;5.60;;;3.93;;
15699;SDS011;7950;42.744;23.174;2023-07-09T03:08:19;6.90;;;3.70;;
15699;SDS011;7950;42.744;23.174;2023-07-09T03:10:48;6.50;;;3.90;;
15699;SDS011;7950;42.744;23.174;2023-07-09T03:13:17;6.27;;;4.30;;
15699;SDS011;7950;42.744;23.174;2023-07-09T03:15:53;6.70;;;4.30;;
15699;SDS011;7950;42.744;23.174;2023-07-09T03:18:24;8.40;;;4.47;;
15699;SDS011;7950;42.744;23.174;2023-07-09T03:20:52;7.17;;;4.07;;
15699;SDS011;7950;42.744;23.174;2023-07-09T03:23:21;7.17;;;4.37;;
15699;SDS011;7950;42.744;23.174;2023-07-09T03:25:49;6.80;;;4.13;;
15699;SDS011;7950;42.744;23.174;2023-07-09T03:28:19;8.37;;;5.70;;
15699;SDS011;7950;42.744;23.174;2023-07-09T03:30:47;7.07;;;4.27;;
15699;SDS011;7950;42.744;23.174;2023-07-09T03:33:17;8.07;;;4.63;;
15699;SDS011;7950;42.744;23.174;2023-07-09T03:35:47;5.87;;;4.70;;
15699;SDS011;7950;42.744;23.174;2023-07-09T03:38:15;6.80;;;4.57;;
15699;SDS011;7950;42.744;23.174;2023-07-09T03:40:44;6.80;;;4.40;;
15699;SDS011;7950;42.744;23.174;2023-07-09T03:43:14;6.33;;;4.57;;
15699;SDS011;7950;42.744;23.174;2023-07-09T03:45:43;7.23;;;4.37;;
15699;SDS011;7950;42.744;23.174;2023-07-09T03:48:13;9.60;;;4.80;;
15699;SDS011;7950;42.744;23.174;2023-07-09T03:50:45;7.53;;;4.60;;
15699;SDS011;7950;42.744;23.174;2023-07-09T03:53:16;5.13;;;4.10;;
15699;SDS011;7950;42.744;23.174;2023-07-09T03:55:45;5.83;;;4.40;;
15699;SDS011;7950;42.744;23.174;2023-07-09T03:58:19;6.00;;;4.33;;
15699;SDS011;7950;42.744;23.174;2023-07-09T04:00:47;5.87;;;4.00;;
15699;SDS011;7950;42.744;23.174;2023-07-09T04:03:16;7.27;;;4.33;;
15699;SDS011;7950;42.744;23.174;2023-07-09T04:05:46;5.57;;;4.03;;
15699;SDS011;7950;42.744;23.174;2023-07-09T04:08:15;5.40;;;4.60;;
15699;SDS011;7950;42.744;23.174;2023-07-09T04:10:44;5.27;;;3.90;;
15699;SDS011;7950;42.744;23.174;2023-07-09T04:13:12;5.83;;;4.50;;
15699;SDS011;7950;42.744;23.174;2023-07-09T04:15:41;5.03;;;3.80;;
15699;SDS011;7950;42.744;23.174;2023-07-09T04:18:09;7.07;;;4.63;;
15699;SDS011;7950;42.744;23.174;2023-07-09T04:20:38;6.00;;;4.30;;
15699;SDS011;7950;42.744;23.174;2023-07-09T04:23:08;10.50;;;4.80;;
15699;SDS011;7950;42.744;23.174;2023-07-09T04:25:37;8.43;;;4.60;;
15699;SDS011;7950;42.744;23.174;2023-07-09T04:28:06;8.07;;;4.90;;
15699;SDS011;7950;42.744;23.174;2023-07-09T04:30:34;9.20;;;4.63;;
15699;SDS011;7950;42.744;23.174;2023-07-09T04:33:03;7.27;;;4.37;;
15699;SDS011;7950;42.744;23.174;2023-07-09T04:35:33;6.90;;;4.77;;
15699;SDS011;7950;42.744;23.174;2023-07-09T04:38:01;8.80;;;4.00;;
15699;SDS011;7950;42.744;23.174;2023-07-09T04:40:31;5.43;;;4.10;;
15699;SDS011;7950;42.744;23.174;2023-07-09T04:43:00;5.20;;;4.13;;
15699;SDS011;7950;42.744;23.174;2023-07-09T04:45:29;8.47;;;4.50;;
15699;SDS011;7950;42.744;23.174;2023-07-09T04:47:57;6.80;;;4.37;;
15699;SDS011;7950;42.744;23.174;2023-07-09T04:50:26;5.27;;;4.40;;
15699;SDS011;7950;42.744;23.174;2023-07-09T04:52:54;6.33;;;4.57;;
15699;SDS011;7950;42.744;23.174;2023-07-09T04:55:23;5.10;;;4.00;;
15699;SDS011;7950;42.744;23.174;2023-07-09T04:57:54;6.70;;;4.17;;
15699;SDS011;7950;42.744;23.174;2023-07-09T05:00:23;8.90;;;4.77;;
15699;SDS011;7950;42.744;23.174;2023-07-09T05:02:51;6.13;;;4.30;;
15699;SDS011;7950;42.744;23.174;2023-07-09T05:05:20;6.63;;;4.73;;
15699;SDS011;7950;42.744;23.174;2023-07-09T05:07:50;6.67;;;4.30;;
15699;SDS011;7950;42.744;23.174;2023-07-09T05:10:18;7.57;;;4.03;;
15699;SDS011;7950;42.744;23.174;2023-07-09T05:12:47;5.97;;;3.70;;
15699;SDS011;7950;42.744;23.174;2023-07-09T05:15:19;7.27;;;3.90;;
15699;SDS011;7950;42.744;23.174;2023-07-09T05:17:49;5.57;;;4.30;;
15699;SDS011;7950;42.744;23.174;2023-07-09T05:20:18;4.47;;;3.97;;
15699;SDS011;7950;42.744;23.174;2023-07-09T05:22:48;4.97;;;3.97;;
15699;SDS011;7950;42.744;23.174;2023-07-09T05:25:16;6.90;;;4.30;;
15699;SDS011;7950;42.744;23.174;2023-07-09T05:27:45;5.07;;;3.73;;
15699;SDS011;7950;42.744;23.174;2023-07-09T05:30:14;5.20;;;3.50;;
15699;SDS011;7950;42.744;23.174;2023-07-09T05:32:44;6.13;;;3.63;;
15699;SDS011;7950;42.744;23.174;2023-07-09T05:35:13;6.77;;;3.60;;
15699;SDS011;7950;42.744;23.174;2023-07-09T05:37:42;4.33;;;3.60;;
15699;SDS011;7950;42.744;23.174;2023-07-09T05:40:10;5.93;;;4.07;;
15699;SDS011;7950;42.744;23.174;2023-07-09T05:42:39;5.73;;;3.77;;
15699;SDS011;7950;42.744;23.174;2023-07-09T05:45:08;6.83;;;3.63;;
15699;SDS011;7950;42.744;23.174;2023-07-09T05:47:38;5.07;;;3.57;;
15699;SDS011;7950;42.744;23.174;2023-07-09T05:50:09;7.93;;;3.87;;
15699;SDS011;7950;42.744;23.174;2023-07-09T05:52:38;7.03;;;3.80;;
15699;SDS011;7950;42.744;23.174;2023-07-09T05:55:07;6.83;;;3.80;;
15699;SDS011;7950;42.744;23.174;2023-07-09T05:57:35;5.00;;;3.87;;
15699;SDS011;7950;42.744;23.174;2023-07-09T06:00:06;13.23;;;4.00;;
15699;SDS011;7950;42.744;23.174;2023-07-09T06:02:38;4.27;;;3.47;;
15699;SDS011;7950;42.744;23.174;2023-07-09T06:05:08;3.70;;;3.40;;
15699;SDS011;7950;42.744;23.174;2023-07-09T06:07:37;5.80;;;3.70;;
15699;SDS011;7950;42.744;23.174;2023-07-09T06:10:07;4.83;;;3.73;;
15699;SDS011;7950;42.744;23.174;2023-07-09T06:12:37;5.60;;;3.50;;
15699;SDS011;7950;42.744;23.174;2023-07-09T06:15:06;6.60;;;3.50;;
15699;SDS011;7950;42.744;23.174;2023-07-09T06:17:38;5.13;;;3.53;;
15699;SDS011;7950;42.744;23.174;2023-07-09T06:20:07;4.70;;;3.60;;
15699;SDS011;7950;42.744;23.174;2023-07-09T06:22:38;5.33;;;3.57;;
15699;SDS011;7950;42.744;23.174;2023-07-09T06:25:07;4.13;;;3.33;;
15699;SDS011;7950;42.744;23.174;2023-07-09T06:27:36;5.87;;;3.40;;
15699;SDS011;7950;42.744;23.174;2023-07-09T06:30:05;3.73;;;3.43;;
15699;SDS011;7950;42.744;23.174;2023-07-09T06:32:35;3.73;;;3.33;;
15699;SDS011;7950;42.744;23.174;2023-07-09T06:35:04;4.80;;;3.40;;
15699;SDS011;7950;42.744;23.174;2023-07-09T06:37:35;5.57;;;3.30;;
15699;SDS011;7950;42.744;23.174;2023-07-09T06:40:03;5.90;;;3.77;;
15699;SDS011;7950;42.744;23.174;2023-07-09T06:42:35;5.90;;;3.60;;
15699;SDS011;7950;42.744;23.174;2023-07-09T06:45:04;6.47;;;3.60;;
15699;SDS011;7950;42.744;23.174;2023-07-09T06:47:34;5.03;;;3.60;;
15699;SDS011;7950;42.744;23.174;2023-07-09T06:50:02;5.57;;;3.83;;
15699;SDS011;7950;42.744;23.174;2023-07-09T06:52:32;5.03;;;4.13;;
15699;SDS011;7950;42.744;23.174;2023-07-09T06:55:02;4.77;;;3.50;;
15699;SDS011;7950;42.744;23.174;2023-07-09T06:57:31;6.07;;;3.90;;
15699;SDS011;7950;42.744;23.174;2023-07-09T06:59:59;4.87;;;3.57;;
15699;SDS011;7950;42.744;23.174;2023-07-09T07:02:28;4.47;;;4.07;;
15699;SDS011;7950;42.744;23.174;2023-07-09T07:04:57;5.27;;;3.70;;
15699;SDS011;7950;42.744;23.174;2023-07-09T07:07:25;5.43;;;3.90;;
15699;SDS011;7950;42.744;23.174;2023-07-09T07:09:54;5.87;;;3.70;;
15699;SDS011;7950;42.744;23.174;2023-07-09T07:12:27;4.50;;;3.73;;
15699;SDS011;7950;42.744;23.174;2023-07-09T07:15:08;5.40;;;3.70;;
15699;SDS011;7950;42.744;23.174;2023-07-09T07:17:37;5.50;;;4.00;;
15699;SDS011;7950;42.744;23.174;2023-07-09T07:20:07;6.10;;;3.80;;
15699;SDS011;7950;42.744;23.174;2023-07-09T07:22:38;7.30;;;4.00;;
15699;SDS011;7950;42.744;23.174;2023-07-09T07:25:07;6.23;;;3.90;;
15699;SDS011;7950;42.744;23.174;2023-07-09T07:27:37;4.53;;;3.60;;
15699;SDS011;7950;42.744;23.174;2023-07-09T07:30:07;6.33;;;4.33;;
15699;SDS011;7950;42.744;23.174;2023-07-09T07:32:37;4.20;;;3.80;;
15699;SDS011;7950;42.744;23.174;2023-07-09T07:35:10;6.20;;;3.80;;
15699;SDS011;7950;42.744;23.174;2023-07-09T07:37:40;4.13;;;3.50;;
15699;SDS011;7950;42.744;23.174;2023-07-09T07:40:09;4.63;;;3.77;;
15699;SDS011;7950;42.744;23.174;2023-07-09T07:42:40;5.83;;;3.50;;
15699;SDS011;7950;42.744;23.174;2023-07-09T07:45:09;4.50;;;3.60;;
15699;SDS011;7950;42.744;23.174;2023-07-09T07:47:38;8.40;;;3.27;;
15699;SDS011;7950;42.744;23.174;2023-07-09T07:50:07;4.97;;;3.40;;
15699;SDS011;7950;42.744;23.174;2023-07-09T07:52:36;4.80;;;3.73;;
15699;SDS011;7950;42.744;23.174;2023-07-09T07:55:05;5.93;;;3.73;;
15699;SDS011;7950;42.744;23.174;2023-07-09T07:57:43;5.73;;;3.67;;
15699;SDS011;7950;42.744;23.174;2023-07-09T08:00:12;4.67;;;3.33;;
15699;SDS011;7950;42.744;23.174;2023-07-09T08:02:41;5.37;;;3.63;;
15699;SDS011;7950;42.744;23.174;2023-07-09T08:05:10;5.63;;;3.90;;
15699;SDS011;7950;42.744;23.174;2023-07-09T08:07:39;3.87;;;3.47;;
15699;SDS011;7950;42.744;23.174;2023-07-09T08:10:07;5.20;;;3.43;;
15699;SDS011;7950;42.744;23.174;2023-07-09T08:12:36;6.00;;;3.80;;
15699;SDS011;7950;42.744;23.174;2023-07-09T08:15:07;3.83;;;3.40;;
15699;SDS011;7950;42.744;23.174;2023-07-09T08:17:37;5.17;;;3.60;;
15699;SDS011;7950;42.744;23.174;2023-07-09T08:20:06;4.77;;;3.43;;
15699;SDS011;7950;42.744;23.174;2023-07-09T08:22:36;5.97;;;3.30;;
15699;SDS011;7950;42.744;23.174;2023-07-09T08:25:06;4.00;;;3.30;;
15699;SDS011;7950;42.744;23.174;2023-07-09T08:27:36;3.87;;;3.50;;
15699;SDS011;7950;42.744;23.174;2023-07-09T08:30:04;5.90;;;3.37;;
15699;SDS011;7950;42.744;23.174;2023-07-09T08:32:36;6.23;;;3.57;;
15699;SDS011;7950;42.744;23.174;2023-07-09T08:35:05;4.40;;;3.17;;
15699;SDS011;7950;42.744;23.174;2023-07-09T08:37:39;5.53;;;4.10;;
15699;SDS011;7950;42.744;23.174;2023-07-09T08:40:09;3.60;;;3.30;;
15699;SDS011;7950;42.744;23.174;2023-07-09T08:42:42;4.63;;;3.30;;
15699;SDS011;7950;42.744;23.174;2023-07-09T08:45:31;5.57;;;3.40;;
15699;SDS011;7950;42.744;23.174;2023-07-09T08:48:13;4.57;;;3.60;;
15699;SDS011;7950;42.744;23.174;2023-07-09T08:50:52;6.00;;;3.47;;
15699;SDS011;7950;42.744;23.174;2023-07-09T08:53:35;3.97;;;3.23;;
15699;SDS011;7950;42.744;23.174;2023-07-09T08:56:08;4.17;;;3.40;;
15699;SDS011;7950;42.744;23.174;2023-07-09T08:58:38;3.83;;;3.43;;
15699;SDS011;7950;42.744;23.174;2023-07-09T09:01:14;4.77;;;3.60;;
15699;SDS011;7950;42.744;23.174;2023-07-09T09:03:48;4.73;;;3.53;;
15699;SDS011;7950;42.744;23.174;2023-07-09T09:06:21;3.27;;;3.00;;
15699;SDS011;7950;42.744;23.174;2023-07-09T09:08:57;4.20;;;3.43;;
15699;SDS011;7950;42.744;23.174;2023-07-09T09:11:41;3.70;;;3.30;;
15699;SDS011;7950;42.744;23.174;2023-07-09T09:14:19;5.17;;;3.50;;
15699;SDS011;7950;42.744;23.174;2023-07-09T09:16:56;5.67;;;3.43;;
15699;SDS011;7950;42.744;23.174;2023-07-09T09:19:26;4.47;;;3.20;;
15699;SDS011;7950;42.744;23.174;2023-07-09T09:22:05;4.33;;;3.37;;
15699;SDS011;7950;42.744;23.174;2023-07-09T09:24:41;5.07;;;3.30;;
15699;SDS011;7950;42.744;23.174;2023-07-09T09:27:24;5.43;;;3.60;;
15699;SDS011;7950;42.744;23.174;2023-07-09T09:29:53;3.57;;;3.20;;
15699;SDS011;7950;42.744;23.174;2023-07-09T09:32:23;4.73;;;3.30;;
15699;SDS011;7950;42.744;23.174;2023-07-09T09:34:55;4.53;;;3.47;;
15699;SDS011;7950;42.744;23.174;2023-07-09T09:37:25;5.43;;;3.50;;
15699;SDS011;7950;42.744;23.174;2023-07-09T09:39:58;3.87;;;3.30;;
15699;SDS011;7950;42.744;23.174;2023-07-09T09:42:43;3.47;;;3.17;;
15699;SDS011;7950;42.744;23.174;2023-07-09T09:45:13;3.53;;;3.20;;
15699;SDS011;7950;42.744;23.174;2023-07-09T09:47:47;6.07;;;3.73;;
15699;SDS011;7950;42.744;23.174;2023-07-09T09:50:17;4.17;;;3.13;;
15699;SDS011;7950;42.744;23.174;2023-07-09T09:52:49;3.60;;;3.03;;
15699;SDS011;7950;42.744;23.174;2023-07-09T09:55:19;3.70;;;3.40;;
15699;SDS011;7950;42.744;23.174;2023-07-09T09:57:55;4.60;;;3.40;;
15699;SDS011;7950;42.744;23.174;2023-07-09T10:00:25;4.13;;;3.73;;
15699;SDS011;7950;42.744;23.174;2023-07-09T10:03:02;4.20;;;3.30;;
15699;SDS011;7950;42.744;23.174;2023-07-09T10:05:36;5.27;;;3.53;;
15699;SDS011;7950;42.744;23.174;2023-07-09T10:08:13;4.27;;;3.27;;
15699;SDS011;7950;42.744;23.174;2023-07-09T10:10:53;4.53;;;3.70;;
15699;SDS011;7950;42.744;23.174;2023-07-09T10:13:35;5.90;;;3.50;;
15699;SDS011;7950;42.744;23.174;2023-07-09T10:16:10;4.93;;;3.40;;
15699;SDS011;7950;42.744;23.174;2023-07-09T10:18:52;4.43;;;3.60;;
15699;SDS011;7950;42.744;23.174;2023-07-09T10:21:31;5.13;;;3.60;;
15699;SDS011;7950;42.744;23.174;2023-07-09T10:24:12;7.53;;;3.27;;
15699;SDS011;7950;42.744;23.174;2023-07-09T10:27:03;4.13;;;3.20;;
15699;SDS011;7950;42.744;23.174;2023-07-09T10:29:50;4.53;;;3.33;;
15699;SDS011;7950;42.744;23.174;2023-07-09T10:32:51;3.63;;;3.00;;
15699;SDS011;7950;42.744;23.174;2023-07-09T10:35:37;4.07;;;3.43;;
15699;SDS011;7950;42.744;23.174;2023-07-09T10:38:18;3.50;;;3.20;;
15699;SDS011;7950;42.744;23.174;2023-07-09T10:41:01;3.70;;;3.30;;
15699;SDS011;7950;42.744;23.174;2023-07-09T10:43:44;3.80;;;3.13;;
15699;SDS011;7950;42.744;23.174;2023-07-09T10:46:20;3.87;;;3.10;;
15699;SDS011;7950;42.744;23.174;2023-07-09T10:48:54;4.10;;;3.23;;
15699;SDS011;7950;42.744;23.174;2023-07-09T10:51:29;3.77;;;3.10;;
15699;SDS011;7950;42.744;23.174;2023-07-09T10:54:06;5.07;;;3.50;;
15699;SDS011;7950;42.744;23.174;2023-07-09T10:56:43;4.73;;;3.23;;
15699;SDS011;7950;42.744;23.174;2023-07-09T10:59:20;4.77;;;3.67;;
15699;SDS011;7950;42.744;23.174;2023-07-09T11:01:55;7.05;;;3.38;;
15699;SDS011;7950;42.744;23.174;2023-07-09T11:04:35;3.70;;;3.40;;
15699;SDS011;7950;42.744;23.174;2023-07-09T11:07:12;4.75;;;3.55;;
15699;SDS011;7950;42.744;23.174;2023-07-09T11:10:00;5.17;;;3.10;;
15699;SDS011;7950;42.744;23.174;2023-07-09T11:12:35;3.70;;;3.30;;
15699;SDS011;7950;42.744;23.174;2023-07-09T11:15:11;3.93;;;3.53;;
15699;SDS011;7950;42.744;23.174;2023-07-09T11:17:45;5.77;;;3.77;;
15699;SDS011;7950;42.744;23.174;2023-07-09T11:20:17;3.67;;;3.27;;
15699;SDS011;7950;42.744;23.174;2023-07-09T11:22:54;4.23;;;3.07;;
15699;SDS011;7950;42.744;23.174;2023-07-09T11:25:31;6.63;;;3.70;;
15699;SDS011;7950;42.744;23.174;2023-07-09T11:28:10;4.65;;;3.47;;
15699;SDS011;7950;42.744;23.174;2023-07-09T11:30:47;5.30;;;3.30;;
15699;SDS011;7950;42.744;23.174;2023-07-09T11:33:20;3.33;;;3.03;;
15699;SDS011;7950;42.744;23.174;2023-07-09T11:36:06;7.03;;;3.10;;
15699;SDS011;7950;42.744;23.174;2023-07-09T11:38:40;4.10;;;3.50;;
15699;SDS011;7950;42.744;23.174;2023-07-09T11:41:27;5.68;;;3.70;;
15699;SDS011;7950;42.744;23.174;2023-07-09T11:44:12;5.13;;;3.45;;
15699;SDS011;7950;42.744;23.174;2023-07-09T11:46:52;3.83;;;3.30;;
15699;SDS011;7950;42.744;23.174;2023-07-09T11:49:43;5.53;;;2.78;;
15699;SDS011;7950;42.744;23.174;2023-07-09T11:52:20;4.18;;;3.28;;
15699;SDS011;7950;42.744;23.174;2023-07-09T11:54:57;5.97;;;3.30;;
15699;SDS011;7950;42.744;23.174;2023-07-09T11:57:38;4.32;;;2.95;;
15699;SDS011;7950;42.744;23.174;2023-07-09T12:00:08;4.50;;;3.30;;
15699;SDS011;7950;42.744;23.174;2023-07-09T12:02:37;4.30;;;3.60;;
15699;SDS011;7950;42.744;23.174;2023-07-09T12:05:06;3.50;;;3.03;;
15699;SDS011;7950;42.744;23.174;2023-07-09T12:07:36;3.85;;;3.03;;
15699;SDS011;7950;42.744;23.174;2023-07-09T12:10:14;4.97;;;3.30;;
15699;SDS011;7950;42.744;23.174;2023-07-09T12:12:48;5.78;;;3.13;;
15699;SDS011;7950;42.744;23.174;2023-07-09T12:15:23;3.78;;;3.00;;
15699;SDS011;7950;42.744;23.174;2023-07-09T12:17:55;4.32;;;3.08;;
15699;SDS011;7950;42.744;23.174;2023-07-09T12:20:25;3.47;;;2.97;;
15699;SDS011;7950;42.744;23.174;2023-07-09T12:22:58;3.50;;;3.20;;
15699;SDS011;7950;42.744;23.174;2023-07-09T12:25:29;3.40;;;3.10;;
15699;SDS011;7950;42.744;23.174;2023-07-09T12:27:58;6.97;;;3.13;;
15699;SDS011;7950;42.744;23.174;2023-07-09T12:30:31;6.28;;;3.28;;
15699;SDS011;7950;42.744;23.174;2023-07-09T12:33:00;5.03;;;3.50;;
15699;SDS011;7950;42.744;23.174;2023-07-09T12:35:35;4.45;;;3.20;;
15699;SDS011;7950;42.744;23.174;2023-07-09T12:38:09;4.75;;;3.20;;
15699;SDS011;7950;42.744;23.174;2023-07-09T12:40:48;5.43;;;3.50;;
15699;SDS011;7950;42.744;23.174;2023-07-09T12:43:19;4.13;;;3.33;;
15699;SDS011;7950;42.744;23.174;2023-07-09T12:45:53;3.80;;;3.30;;
15699;SDS011;7950;42.744;23.174;2023-07-09T12:48:23;5.40;;;3.13;;
15699;SDS011;7950;42.744;23.174;2023-07-09T12:50:54;5.43;;;3.35;;
15699;SDS011;7950;42.744;23.174;2023-07-09T12:53:26;6.00;;;3.55;;
15699;SDS011;7950;42.744;23.174;2023-07-09T12:55:58;3.67;;;3.30;;
15699;SDS011;7950;42.744;23.174;2023-07-09T12:58:29;3.90;;;3.50;;
15699;SDS011;7950;42.744;23.174;2023-07-09T13:01:00;4.78;;;3.33;;
15699;SDS011;7950;42.744;23.174;2023-07-09T13:03:34;5.20;;;3.47;;
15699;SDS011;7950;42.744;23.174;2023-07-09T13:06:05;3.50;;;3.13;;
15699;SDS011;7950;42.744;23.174;2023-07-09T13:08:55;3.97;;;3.30;;
15699;SDS011;7950;42.744;23.174;2023-07-09T13:11:31;4.88;;;3.30;;
15699;SDS011;7950;42.744;23.174;2023-07-09T13:14:04;5.25;;;3.28;;
15699;SDS011;7950;42.744;23.174;2023-07-09T13:16:45;5.03;;;3.20;;
15699;SDS011;7950;42.744;23.174;2023-07-09T13:19:14;6.60;;;3.30;;
15699;SDS011;7950;42.744;23.174;2023-07-09T13:21:43;4.18;;;3.25;;
15699;SDS011;7950;42.744;23.174;2023-07-09T13:24:14;5.20;;;3.17;;
15699;SDS011;7950;42.744;23.174;2023-07-09T13:26:49;3.83;;;3.13;;
15699;SDS011;7950;42.744;23.174;2023-07-09T13:29:19;4.60;;;3.38;;
15699;SDS011;7950;42.744;23.174;2023-07-09T13:31:48;5.80;;;3.30;;
15699;SDS011;7950;42.744;23.174;2023-07-09T13:34:18;3.67;;;3.38;;
15699;SDS011;7950;42.744;23.174;2023-07-09T13:36:50;4.68;;;3.63;;
15699;SDS011;7950;42.744;23.174;2023-07-09T13:39:22;3.50;;;3.20;;
15699;SDS011;7950;42.744;23.174;2023-07-09T13:41:55;3.60;;;3.30;;
15699;SDS011;7950;42.744;23.174;2023-07-09T13:44:25;6.15;;;3.17;;
15699;SDS011;7950;42.744;23.174;2023-07-09T13:46:57;5.00;;;3.38;;
15699;SDS011;7950;42.744;23.174;2023-07-09T13:49:26;3.90;;;3.38;;
15699;SDS011;7950;42.744;23.174;2023-07-09T13:51:59;6.10;;;3.85;;
15699;SDS011;7950;42.744;23.174;2023-07-09T13:54:28;4.88;;;3.40;;
15699;SDS011;7950;42.744;23.174;2023-07-09T13:57:04;5.95;;;3.30;;
15699;SDS011;7950;42.744;23.174;2023-07-09T13:59:38;4.60;;;3.53;;
15699;SDS011;7950;42.744;23.174;2023-07-09T14:02:13;3.85;;;3.35;;
15699;SDS011;7950;42.744;23.174;2023-07-09T14:04:50;3.67;;;2.92;;
15699;SDS011;7950;42.744;23.174;2023-07-09T14:07:23;4.63;;;2.92;;
15699;SDS011;7950;42.744;23.174;2023-07-09T14:09:56;3.30;;;3.00;;
15699;SDS011;7950;42.744;23.174;2023-07-09T14:12:27;5.78;;;2.80;;
15699;SDS011;7950;42.744;23.174;2023-07-09T14:14:57;4.63;;;3.10;;
15699;SDS011;7950;42.744;23.174;2023-07-09T14:17:29;3.90;;;2.88;;
15699;SDS011;7950;42.744;23.174;2023-07-09T14:19:57;3.03;;;2.72;;
15699;SDS011;7950;42.744;23.174;2023-07-09T14:22:28;3.20;;;2.90;;
15699;SDS011;7950;42.744;23.174;2023-07-09T14:25:02;3.30;;;3.00;;
15699;SDS011;7950;42.744;23.174;2023-07-09T14:27:34;6.53;;;3.10;;
15699;SDS011;7950;42.744;23.174;2023-07-09T14:30:03;3.35;;;3.05;;
15699;SDS011;7950;42.744;23.174;2023-07-09T14:32:34;3.60;;;2.80;;
15699;SDS011;7950;42.744;23.174;2023-07-09T14:35:10;3.53;;;3.22;;
15699;SDS011;7950;42.744;23.174;2023-07-09T14:37:42;3.60;;;2.83;;
15699;SDS011;7950;42.744;23.174;2023-07-09T14:40:14;4.30;;;2.80;;
15699;SDS011;7950;42.744;23.174;2023-07-09T14:42:45;3.20;;;2.90;;
15699;SDS011;7950;42.744;23.174;2023-07-09T14:45:17;3.65;;;3.10;;
15699;SDS011;7950;42.744;23.174;2023-07-09T14:47:50;3.17;;;2.88;;
15699;SDS011;7950;42.744;23.174;2023-07-09T14:50:21;3.60;;;3.27;;
15699;SDS011;7950;42.744;23.174;2023-07-09T14:52:50;3.70;;;3.22;;
15699;SDS011;7950;42.744;23.174;2023-07-09T14:55:20;3.03;;;2.83;;
15699;SDS011;7950;42.744;23.174;2023-07-09T14:57:52;3.20;;;2.90;;
15699;SDS011;7950;42.744;23.174;2023-07-09T15:00:21;4.80;;;2.88;;
15699;SDS011;7950;42.744;23.174;2023-07-09T15:02:51;3.90;;;3.60;;
15699;SDS011;7950;42.744;23.174;2023-07-09T15:05:22;3.40;;;3.10;;
15699;SDS011;7950;42.744;23.174;2023-07-09T15:07:55;3.27;;;2.93;;
15699;SDS011;7950;42.744;23.174;2023-07-09T15:10:24;3.80;;;3.50;;
15699;SDS011;7950;42.744;23.174;2023-07-09T15:12:55;3.47;;;3.17;;
15699;SDS011;7950;42.744;23.174;2023-07-09T15:15:25;3.27;;;3.00;;
15699;SDS011;7950;42.744;23.174;2023-07-09T15:17:56;3.60;;;3.30;;